Portada
Imágenes satélite Pronóstico 15 díasClimaPredicción Marítima Ciclones Rayo AeropuertosFAQ Noticias Acerca
El tiempo : Europa África América del Norte América del Sur Asia Australia-Oceanía Otros
Idiomas Contacto

Chichén Itzá, México

latitud: 20-38-30N, longitud: 088-26-58W, altitud: 31 m


METAR: MMCT 271843Z 27005KT 8SM BKN015 34/23 A2988 RMK 8/400 MSGTX MMMD
short-TAF: falta
long-TAF: falta

Hora: 14:02 (19:02 UTC)

Observación

El informe se hizo hace 19 minutos, a las 18:43 UTC  
Viento 05 kt del oeste
Temperatura 34°C
Humedad 53%
Presión 1012 hPa
Visibilidad 12.9 km
Cielo nuboso a una altura de 1500 ft

Cambiar las unidades
La información que se ofrece en estas páginas está sujeta a una cláusula de exención de responsabilidad
El tiempo : Europa África América del Norte América del Sur Asia Australia-Oceanía Otros
Imágenes satélite Pronóstico 15 díasClimaPredicción Marítima Ciclones Rayo AeropuertosFAQ Idiomas Contacto Noticias Acerca